King of Scandinavia — OVOL2 — position and weather

sailwx.info

Track history (hours):
 
Tides and Currents Weather Stations Pressure Air Temp Water Temp Dewpoint Dewpoint Depression Visibility Wind Speed Wind Dir Waves Ship Positions

King of Scandinavia

Ship's website: http://www.dfds.co.uk/DSW/EN/OnBoard/na/KING.htm

Last reported at 2019-Mar-22 12:00 UTC. Time now 2019-Mar-22 12:22 UTC.
Position N 52°28' E 004°35'.

Length 166 m; beam 27.6 m; draft 6.2 m.

Type: Ship. MMSI: 220449000.

Date/timePositionNaut miles runAvg speedWind from/ knotsBaromVisibWave heightAir tempDewpointWater temp
2019-Mar-22 12:00N 52°28' E 004°35'0 0.0
2019-Mar-22 11:27N 52°28' E 004°35'0 0.0
2019-Mar-22 11:00N 52°28' E 004°35'0 0.0
2019-Mar-22 10:30N 52°28' E 004°35'0 0.0
2019-Mar-22 10:00N 52°28' E 004°35'0 0.0
2019-Mar-22 09:30N 52°28' E 004°35'0 0.0
2019-Mar-22 09:00N 52°28' E 004°35'0 0.3
2019-Mar-22 08:30N 52°28' E 004°35'5 9.8
2019-Mar-22 08:00N 52°29' E 004°27'917.7
2019-Mar-22 07:30N 52°36' E 004°17'918.0
2019-Mar-22 06:59N 52°42' E 004°06'918.0
2019-Mar-22 06:29N 52°47' E 003°54'917.7
2019-Mar-22 06:00N 52°53' E 003°43'917.6
2019-Mar-22 05:29N 52°59' E 003°32'817.4
2019-Mar-22 05:00N 53°05' E 003°22'2718.4
2019-Mar-22 03:33N 53°20' E 002°45'318.3
2019-Mar-22 03:22N 53°22' E 002°41'718.1
2019-Mar-22 02:59N 53°26' E 002°31'917.8
2019-Mar-22 02:28N 53°31' E 002°19'1517.6
2019-Mar-22 01:36N 53°39' E 001°57'1117.8
2019-Mar-22 01:00N 53°44' E 001°40'917.6
2019-Mar-22 00:30N 53°50' E 001°29'917.7
2019-Mar-22 00:00N 53°56' E 001°18'1916.7
2019-Mar-21 22:50N 54°08' E 000°53'1316.6
2019-Mar-21 22:01N 54°16' E 000°34'1416.8
2019-Mar-21 21:11N 54°24' E 000°13'5517.7
2019-Mar-21 18:06N 54°54' W 001°05'218.9
2019-Mar-21 18:00N 54°55' W 001°08'918.6
2019-Mar-21 17:30N 55°00' W 001°21'4 7.0
2019-Mar-21 17:00N 54°59' W 001°27'0 0.0
2019-Mar-21 16:30N 54°59' W 001°27'0 0.0
2019-Mar-21 15:59N 54°59' W 001°27'0 0.0
2019-Mar-21 15:29N 54°59' W 001°27'0 0.0
2019-Mar-21 14:50N 54°59' W 001°27'0 0.0
2019-Mar-21 14:29N 54°59' W 001°27'0 0.0
2019-Mar-21 13:59N 54°59' W 001°27'0 0.0
2019-Mar-21 13:29N 54°59' W 001°27'0 0.0
2019-Mar-21 12:59N 54°59' W 001°27'0 0.0
2019-Mar-21 12:20N 54°59' W 001°27'0 0.0
2019-Mar-21 11:50N 54°59' W 001°27'0 0.0
2019-Mar-21 11:20N 54°59' W 001°27'0 0.0
2019-Mar-21 10:53N 54°59' W 001°27'0 0.0
2019-Mar-21 10:26N 54°59' W 001°27'0 0.0
2019-Mar-21 09:53N 54°59' W 001°27'0 0.0
2019-Mar-21 09:23N 54°59' W 001°27'0 0.7
2019-Mar-21 09:01N 54°60' W 001°27'4 8.2
2019-Mar-21 08:30N 54°60' W 001°20'816.9
2019-Mar-21 08:00N 54°55' W 001°07'16716.8
2019-Mar-20 22:06N 53°21' E 002°48'1315.8
2019-Mar-20 21:18N 53°13' E 003°04'5715.4
2019-Mar-20 17:36N 52°37' E 004°16'215.9
2019-Mar-20 17:30N 52°36' E 004°18'816.2
2019-Mar-20 17:00N 52°30' E 004°28'5 9.8
2019-Mar-20 16:30N 52°28' E 004°35'0 0.0
2019-Mar-20 16:00N 52°28' E 004°35'0 0.0
2019-Mar-20 15:28N 52°28' E 004°35'0 0.0
2019-Mar-20 14:58N 52°28' E 004°35'0 0.0
2019-Mar-20 14:28N 52°28' E 004°35'0 0.0
2019-Mar-20 13:55N 52°28' E 004°35'0 0.0
2019-Mar-20 13:28N 52°28' E 004°35'0 0.0
2019-Mar-20 12:58N 52°28' E 004°35'0 0.0
2019-Mar-20 12:28N 52°28' E 004°35'0 0.0
2019-Mar-20 11:58N 52°28' E 004°35'0 0.0
2019-Mar-20 11:28N 52°28' E 004°35'0 0.0
2019-Mar-20 10:58N 52°28' E 004°35'0 0.0
2019-Mar-20 10:28N 52°28' E 004°35'0 0.0
2019-Mar-20 09:58N 52°28' E 004°35'0 0.0
2019-Mar-20 09:28N 52°28' E 004°35'0 0.0
2019-Mar-20 08:58N 52°28' E 004°35'0 0.2
2019-Mar-20 08:30N 52°28' E 004°35'5 9.0
2019-Mar-20 08:00N 52°29' E 004°28'714.2
2019-Mar-20 07:30N 52°34' E 004°20'816.9
2019-Mar-20 07:00N 52°39' E 004°09'918.5
2019-Mar-20 06:30N 52°46' E 003°58'21817.5
2019-Mar-19 18:05N 54°52' W 001°02'118.1
2019-Mar-19 18:00N 54°53' W 001°04'918.2
2019-Mar-19 17:30N 54°59' W 001°17'611.3
2019-Mar-19 17:00N 54°60' W 001°27'0 0.9
2019-Mar-19 16:30N 54°59' W 001°27'0 0.0
2019-Mar-19 15:59N 54°59' W 001°27'0 0.0
2019-Mar-19 15:29N 54°59' W 001°27'0 0.0
2019-Mar-19 14:59N 54°59' W 001°27'0 0.0
2019-Mar-19 14:29N 54°59' W 001°27'0 0.0
2019-Mar-19 13:59N 54°59' W 001°27'0 0.0
2019-Mar-19 13:29N 54°59' W 001°27'0 0.0
2019-Mar-19 12:59N 54°59' W 001°27'0 0.0
2019-Mar-19 12:29N 54°59' W 001°27'0 0.0
2019-Mar-19 11:59N 54°59' W 001°27'0 0.0
2019-Mar-19 11:29N 54°59' W 001°27'0 0.0
2019-Mar-19 10:59N 54°59' W 001°27'0 0.0
2019-Mar-19 10:29N 54°59' W 001°27'0 0.0
2019-Mar-19 09:50N 54°59' W 001°27'0 0.0
2019-Mar-19 09:20N 54°59' W 001°27'0 0.0
2019-Mar-19 09:00N 54°59' W 001°27'4 8.3
2019-Mar-19 08:30N 55°00' W 001°20'815.8
2019-Mar-19 08:00N 54°56' W 001°08'18017.0
2019-Mar-18 21:26N 53°14' E 003°03'817.5
2019-Mar-18 21:00N 53°09' E 003°13'4915.7
2019-Mar-18 17:53N 52°37' E 004°15'514.2
2019-Mar-18 17:31N 52°34' E 004°22'713.6
2019-Mar-18 17:01N 52°29' E 004°30'3 6.9
2019-Mar-18 16:30N 52°28' E 004°35'0 0.0
2019-Mar-18 16:00N 52°28' E 004°35'0 0.0
2019-Mar-18 15:27N 52°28' E 004°35'0 0.0
2019-Mar-18 15:00N 52°28' E 004°35'0 0.0
2019-Mar-18 14:27N 52°28' E 004°35'0 0.0
2019-Mar-18 13:57N 52°28' E 004°35'0 0.0
2019-Mar-18 13:30N 52°28' E 004°35'0 0.0
2019-Mar-18 13:00N 52°28' E 004°35'0 0.0
2019-Mar-18 12:30N 52°28' E 004°35'0 0.0
2019-Mar-18 12:00N 52°28' E 004°35'0 0.0
2019-Mar-18 11:27N 52°28' E 004°35'0 0.0
2019-Mar-18 10:57N 52°28' E 004°35'0 0.0
2019-Mar-18 10:30N 52°28' E 004°35'0 0.0
2019-Mar-18 10:00N 52°28' E 004°35'0 0.0
2019-Mar-18 09:30N 52°28' E 004°35'0 0.0
2019-Mar-18 09:00N 52°28' E 004°35'0 0.1
2019-Mar-18 08:30N 52°28' E 004°35'4 8.8
2019-Mar-18 08:00N 52°29' E 004°28'816.0
2019-Mar-18 07:30N 52°35' E 004°19'816.2
2019-Mar-18 07:00N 52°40' E 004°09'1216.2
2019-Mar-18 06:17N 52°48' E 003°54'21617.5
2019-Mar-17 17:58N 54°53' W 001°03'918.3
2019-Mar-17 17:30N 54°58' W 001°16'612.9
2019-Mar-17 17:00N 55°00' W 001°27'1 1.2
2019-Mar-17 16:30N 54°59' W 001°27'0 0.0
2019-Mar-17 15:55N 54°59' W 001°27'0 0.0
2019-Mar-17 15:25N 54°59' W 001°27'0 0.0
2019-Mar-17 14:55N 54°59' W 001°27'0 0.0
2019-Mar-17 14:22N 54°59' W 001°27'0 0.0
2019-Mar-17 13:52N 54°59' W 001°27'0 0.0
2019-Mar-17 13:28N 54°59' W 001°27'0 0.0
2019-Mar-17 12:58N 54°59' W 001°27'0 0.0
2019-Mar-17 12:28N 54°59' W 001°27'0 0.0
2019-Mar-17 11:58N 54°59' W 001°27'0 0.0
2019-Mar-17 11:25N 54°59' W 001°27'0 0.0
2019-Mar-17 10:55N 54°59' W 001°27'0 0.0
2019-Mar-17 10:28N 54°59' W 001°27'0 0.0
2019-Mar-17 09:55N 54°59' W 001°27'0 0.0
2019-Mar-17 09:25N 54°59' W 001°27'0 0.0
2019-Mar-17 09:00N 54°59' W 001°27'4 8.3
2019-Mar-17 08:30N 54°60' W 001°20'815.1
2019-Mar-17 08:00N 54°55' W 001°10'7016.6
2019-Mar-17 03:49N 54°10' E 000°22'16816.5
2019-Mar-16 17:39N 52°37' E 004°15'318.1
2019-Mar-16 17:30N 52°35' E 004°18'815.3
2019-Mar-16 17:01N 52°30' E 004°28'5 9.5
2019-Mar-16 16:31N 52°28' E 004°35'0 0.2
2019-Mar-16 16:01N 52°28' E 004°35'0 0.0
2019-Mar-16 15:30N 52°28' E 004°35'0 0.0
2019-Mar-16 15:00N 52°28' E 004°35'0 0.0
2019-Mar-16 14:30N 52°28' E 004°35'0 0.0
2019-Mar-16 14:00N 52°28' E 004°35'0 0.0
2019-Mar-16 13:30N 52°28' E 004°35'0 0.0
2019-Mar-16 13:00N 52°28' E 004°35'0 0.0
2019-Mar-16 12:30N 52°28' E 004°35'0 0.0
2019-Mar-16 12:00N 52°28' E 004°35'0 0.0
2019-Mar-16 11:30N 52°28' E 004°35'0 0.0
2019-Mar-16 11:00N 52°28' E 004°35'0 0.0
2019-Mar-16 10:30N 52°28' E 004°35'0 0.0
2019-Mar-16 10:00N 52°28' E 004°35'0 0.0
2019-Mar-16 09:30N 52°28' E 004°35'0 0.0
2019-Mar-16 09:00N 52°28' E 004°35'0 0.0
2019-Mar-16 08:30N 52°28' E 004°35'0 0.3
2019-Mar-16 08:01N 52°28' E 004°35'713.3
2019-Mar-16 07:30N 52°31' E 004°26'817.0
2019-Mar-16 07:00N 52°37' E 004°15'917.3
2019-Mar-16 06:30N 52°43' E 004°04'22217.9
2019-Mar-15 18:07N 54°52' W 001°00'217.4
2019-Mar-15 17:58N 54°54' W 001°04'817.3
2019-Mar-15 17:30N 54°58' W 001°16'712.1
2019-Mar-15 16:58N 54°60' W 001°27'1 1.3
2019-Mar-15 16:30N 54°59' W 001°27'0 0.0
2019-Mar-15 16:00N 54°59' W 001°27'0 0.0
2019-Mar-15 15:30N 54°59' W 001°27'0 0.0
2019-Mar-15 14:59N 54°59' W 001°27'0 0.0
2019-Mar-15 14:08N 54°59' W 001°27'0 0.0
2019-Mar-15 13:51N 54°59' W 001°27'0 0.0
2019-Mar-15 13:29N 54°59' W 001°27'0 0.0
2019-Mar-15 12:47N 54°59' W 001°27'0 0.0
2019-Mar-15 12:23N 54°59' W 001°27'0 0.0
2019-Mar-15 11:53N 54°59' W 001°27'0 0.0
2019-Mar-15 11:26N 54°59' W 001°27'0 0.0
2019-Mar-15 10:53N 54°59' W 001°27'0 0.0
2019-Mar-15 10:26N 54°59' W 001°27'0 0.0
2019-Mar-15 09:56N 54°59' W 001°27'0 0.0
2019-Mar-15 09:26N 54°59' W 001°27'0 0.3
2019-Mar-15 09:01N 54°60' W 001°27'5 9.3
2019-Mar-15 08:30N 54°59' W 001°19'815.7
2019-Mar-15 08:00N 54°55' W 001°07'23416.3
2019-Mar-14 17:41N 52°38' E 004°13'316.2
2019-Mar-14 17:31N 52°36' E 004°17'816.2
2019-Mar-14 17:00N 52°31' E 004°27'611.5
2019-Mar-14 16:30N 52°28' E 004°35'0 0.6
2019-Mar-14 16:01N 52°28' E 004°35'0 0.0
2019-Mar-14 15:28N 52°28' E 004°35'0 0.0
2019-Mar-14 14:58N 52°28' E 004°35'0 0.0
2019-Mar-14 14:28N 52°28' E 004°35'0 0.0
2019-Mar-14 13:58N 52°28' E 004°35'0 0.0
2019-Mar-14 13:28N 52°28' E 004°35'0 0.0
2019-Mar-14 12:55N 52°28' E 004°35'0 0.0
2019-Mar-14 12:25N 52°28' E 004°35'0 0.0
2019-Mar-14 11:55N 52°28' E 004°35'0 0.0
2019-Mar-14 11:25N 52°28' E 004°35'0 0.0
2019-Mar-14 10:58N 52°28' E 004°35'0 0.0
2019-Mar-14 10:28N 52°28' E 004°35'0 0.0
2019-Mar-14 09:58N 52°28' E 004°35'0 0.0
2019-Mar-14 09:28N 52°28' E 004°35'0 0.0
2019-Mar-14 08:55N 52°28' E 004°35'0 0.3
2019-Mar-14 08:31N 52°28' E 004°35'3 5.1
2019-Mar-14 08:01N 52°28' E 004°31'713.5
2019-Mar-14 07:31N 52°32' E 004°22'714.4
2019-Mar-14 07:00N 52°38' E 004°14'814.5
2019-Mar-14 06:28N 52°43' E 004°05'21917.9
2019-Mar-13 18:14N 54°51' W 000°57'418.7
2019-Mar-13 18:00N 54°53' W 001°03'918.9
2019-Mar-13 17:30N 54°58' W 001°17'611.4
2019-Mar-13 17:00N 54°60' W 001°27'1 1.1
2019-Mar-13 16:30N 54°59' W 001°27'0 0.0
2019-Mar-13 16:00N 54°59' W 001°27'0 0.0
2019-Mar-13 15:30N 54°59' W 001°27'0 0.0
2019-Mar-13 15:00N 54°59' W 001°27'0 0.0
2019-Mar-13 14:30N 54°59' W 001°27'0 0.0
2019-Mar-13 14:00N 54°59' W 001°27'0 0.0
2019-Mar-13 13:30N 54°59' W 001°27'0 0.0
2019-Mar-13 13:00N 54°59' W 001°27'0 0.0
2019-Mar-13 12:30N 54°59' W 001°27'0 0.0
2019-Mar-13 12:00N 54°59' W 001°27'0 0.0
2019-Mar-13 11:30N 54°59' W 001°27'0 0.0
2019-Mar-13 11:00N 54°59' W 001°27'0 0.0
2019-Mar-13 10:30N 54°59' W 001°27'0 0.0
2019-Mar-13 10:00N 54°59' W 001°27'0 0.0
2019-Mar-13 09:30N 54°59' W 001°27'0 0.1
2019-Mar-13 09:00N 54°59' W 001°27'4 8.5
2019-Mar-13 08:31N 54°60' W 001°20'714.8
2019-Mar-13 08:01N 54°54' W 001°10'5816.5
2019-Mar-13 04:28N 54°11' W 000°03'918.9
2019-Mar-13 04:00N 54°04' E 000°06'919.2
2019-Mar-13 03:30N 53°56' E 000°14'917.8
2019-Mar-13 03:00N 53°49' E 000°25'6518.1
2019-Mar-12 23:27N 53°03' E 001°40'716.8
2019-Mar-12 23:00N 52°58' E 001°50'816.7
2019-Mar-12 22:30N 52°53' E 002°00'817.0
2019-Mar-12 22:00N 52°48' E 002°11'917.2
2019-Mar-12 21:31N 52°44' E 002°24'917.7
2019-Mar-12 21:00N 52°41' E 002°38'5117.2
2019-Mar-12 18:04N 52°30' E 003°59'116.5
2019-Mar-12 18:00N 52°30' E 004°01'817.0
2019-Mar-12 17:30N 52°30' E 004°15'918.0
2019-Mar-12 17:00N 52°28' E 004°29'4 7.1
2019-Mar-12 16:30N 52°28' E 004°35'0 0.0
2019-Mar-12 16:00N 52°28' E 004°35'0 0.0
2019-Mar-12 15:29N 52°28' E 004°35'0 0.0
2019-Mar-12 14:59N 52°28' E 004°35'0 0.0
2019-Mar-12 14:29N 52°28' E 004°35'0 0.0
2019-Mar-12 13:59N 52°28' E 004°35'0 0.0
2019-Mar-12 13:29N 52°28' E 004°35'0 0.0
2019-Mar-12 12:59N 52°28' E 004°35'0 0.0
2019-Mar-12 12:26N 52°28' E 004°35'  
Track history (hours):
 
Tides and Currents Weather Stations Pressure Air Temp Water Temp Dewpoint Dewpoint Depression Visibility Wind Speed Wind Dir Waves Ship Positions

King of Scandinavia

Ship's website: http://www.dfds.co.uk/DSW/EN/OnBoard/na/KING.htm

Last reported at 2019-Mar-22 12:00 UTC. Time now 2019-Mar-22 12:22 UTC.
Position N 52°28' E 004°35'.

Length 166 m; beam 27.6 m; draft 6.2 m.

Type: Ship. MMSI: 220449000.

Date/timePositionNaut miles runAvg speedWind from/ knotsBaromVisibWave heightAir tempDewpointWater temp
2019-Mar-22 12:00N 52°28' E 004°35'0 0.0
2019-Mar-22 11:27N 52°28' E 004°35'0 0.0
2019-Mar-22 11:00N 52°28' E 004°35'0 0.0
2019-Mar-22 10:30N 52°28' E 004°35'0 0.0
2019-Mar-22 10:00N 52°28' E 004°35'0 0.0
2019-Mar-22 09:30N 52°28' E 004°35'0 0.0
2019-Mar-22 09:00N 52°28' E 004°35'0 0.3
2019-Mar-22 08:30N 52°28' E 004°35'5 9.8
2019-Mar-22 08:00N 52°29' E 004°27'917.7
2019-Mar-22 07:30N 52°36' E 004°17'918.0
2019-Mar-22 06:59N 52°42' E 004°06'918.0
2019-Mar-22 06:29N 52°47' E 003°54'917.7
2019-Mar-22 06:00N 52°53' E 003°43'917.6
2019-Mar-22 05:29N 52°59' E 003°32'817.4
2019-Mar-22 05:00N 53°05' E 003°22'2718.4
2019-Mar-22 03:33N 53°20' E 002°45'318.3
2019-Mar-22 03:22N 53°22' E 002°41'718.1
2019-Mar-22 02:59N 53°26' E 002°31'917.8
2019-Mar-22 02:28N 53°31' E 002°19'1517.6
2019-Mar-22 01:36N 53°39' E 001°57'1117.8
2019-Mar-22 01:00N 53°44' E 001°40'917.6
2019-Mar-22 00:30N 53°50' E 001°29'917.7
2019-Mar-22 00:00N 53°56' E 001°18'1916.7
2019-Mar-21 22:50N 54°08' E 000°53'1316.6
2019-Mar-21 22:01N 54°16' E 000°34'1416.8
2019-Mar-21 21:11N 54°24' E 000°13'5517.7
2019-Mar-21 18:06N 54°54' W 001°05'218.9
2019-Mar-21 18:00N 54°55' W 001°08'918.6
2019-Mar-21 17:30N 55°00' W 001°21'4 7.0
2019-Mar-21 17:00N 54°59' W 001°27'0 0.0
2019-Mar-21 16:30N 54°59' W 001°27'0 0.0
2019-Mar-21 15:59N 54°59' W 001°27'0 0.0
2019-Mar-21 15:29N 54°59' W 001°27'0 0.0
2019-Mar-21 14:50N 54°59' W 001°27'0 0.0
2019-Mar-21 14:29N 54°59' W 001°27'0 0.0
2019-Mar-21 13:59N 54°59' W 001°27'0 0.0
2019-Mar-21 13:29N 54°59' W 001°27'0 0.0
2019-Mar-21 12:59N 54°59' W 001°27'0 0.0
2019-Mar-21 12:20N 54°59' W 001°27'0 0.0
2019-Mar-21 11:50N 54°59' W 001°27'0 0.0
2019-Mar-21 11:20N 54°59' W 001°27'0 0.0
2019-Mar-21 10:53N 54°59' W 001°27'0 0.0
2019-Mar-21 10:26N 54°59' W 001°27'0 0.0
2019-Mar-21 09:53N 54°59' W 001°27'0 0.0
2019-Mar-21 09:23N 54°59' W 001°27'0 0.7
2019-Mar-21 09:01N 54°60' W 001°27'4 8.2
2019-Mar-21 08:30N 54°60' W 001°20'816.9
2019-Mar-21 08:00N 54°55' W 001°07'16716.8
2019-Mar-20 22:06N 53°21' E 002°48'1315.8
2019-Mar-20 21:18N 53°13' E 003°04'5715.4
2019-Mar-20 17:36N 52°37' E 004°16'215.9
2019-Mar-20 17:30N 52°36' E 004°18'816.2
2019-Mar-20 17:00N 52°30' E 004°28'5 9.8
2019-Mar-20 16:30N 52°28' E 004°35'0 0.0
2019-Mar-20 16:00N 52°28' E 004°35'0 0.0
2019-Mar-20 15:28N 52°28' E 004°35'0 0.0
2019-Mar-20 14:58N 52°28' E 004°35'0 0.0
2019-Mar-20 14:28N 52°28' E 004°35'0 0.0
2019-Mar-20 13:55N 52°28' E 004°35'0 0.0
2019-Mar-20 13:28N 52°28' E 004°35'0 0.0
2019-Mar-20 12:58N 52°28' E 004°35'0 0.0
2019-Mar-20 12:28N 52°28' E 004°35'0 0.0
2019-Mar-20 11:58N 52°28' E 004°35'0 0.0
2019-Mar-20 11:28N 52°28' E 004°35'0 0.0
2019-Mar-20 10:58N 52°28' E 004°35'0 0.0
2019-Mar-20 10:28N 52°28' E 004°35'0 0.0
2019-Mar-20 09:58N 52°28' E 004°35'0 0.0
2019-Mar-20 09:28N 52°28' E 004°35'0 0.0
2019-Mar-20 08:58N 52°28' E 004°35'0 0.2
2019-Mar-20 08:30N 52°28' E 004°35'5 9.0
2019-Mar-20 08:00N 52°29' E 004°28'714.2
2019-Mar-20 07:30N 52°34' E 004°20'816.9
2019-Mar-20 07:00N 52°39' E 004°09'918.5
2019-Mar-20 06:30N 52°46' E 003°58'21817.5
2019-Mar-19 18:05N 54°52' W 001°02'118.1
2019-Mar-19 18:00N 54°53' W 001°04'918.2
2019-Mar-19 17:30N 54°59' W 001°17'611.3
2019-Mar-19 17:00N 54°60' W 001°27'0 0.9
2019-Mar-19 16:30N 54°59' W 001°27'0 0.0
2019-Mar-19 15:59N 54°59' W 001°27'0 0.0
2019-Mar-19 15:29N 54°59' W 001°27'0 0.0
2019-Mar-19 14:59N 54°59' W 001°27'0 0.0
2019-Mar-19 14:29N 54°59' W 001°27'0 0.0
2019-Mar-19 13:59N 54°59' W 001°27'0 0.0
2019-Mar-19 13:29N 54°59' W 001°27'0 0.0
2019-Mar-19 12:59N 54°59' W 001°27'0 0.0
2019-Mar-19 12:29N 54°59' W 001°27'0 0.0
2019-Mar-19 11:59N 54°59' W 001°27'0 0.0
2019-Mar-19 11:29N 54°59' W 001°27'0 0.0
2019-Mar-19 10:59N 54°59' W 001°27'0 0.0
2019-Mar-19 10:29N 54°59' W 001°27'0 0.0
2019-Mar-19 09:50N 54°59' W 001°27'0 0.0
2019-Mar-19 09:20N 54°59' W 001°27'0 0.0
2019-Mar-19 09:00N 54°59' W 001°27'4 8.3
2019-Mar-19 08:30N 55°00' W 001°20'815.8
2019-Mar-19 08:00N 54°56' W 001°08'18017.0
2019-Mar-18 21:26N 53°14' E 003°03'817.5
2019-Mar-18 21:00N 53°09' E 003°13'4915.7
2019-Mar-18 17:53N 52°37' E 004°15'514.2
2019-Mar-18 17:31N 52°34' E 004°22'713.6
2019-Mar-18 17:01N 52°29' E 004°30'3 6.9
2019-Mar-18 16:30N 52°28' E 004°35'0 0.0
2019-Mar-18 16:00N 52°28' E 004°35'0 0.0
2019-Mar-18 15:27N 52°28' E 004°35'0 0.0
2019-Mar-18 15:00N 52°28' E 004°35'0 0.0
2019-Mar-18 14:27N 52°28' E 004°35'0 0.0
2019-Mar-18 13:57N 52°28' E 004°35'0 0.0
2019-Mar-18 13:30N 52°28' E 004°35'0 0.0
2019-Mar-18 13:00N 52°28' E 004°35'0 0.0
2019-Mar-18 12:30N 52°28' E 004°35'0 0.0
2019-Mar-18 12:00N 52°28' E 004°35'0 0.0
2019-Mar-18 11:27N 52°28' E 004°35'0 0.0
2019-Mar-18 10:57N 52°28' E 004°35'0 0.0
2019-Mar-18 10:30N 52°28' E 004°35'0 0.0
2019-Mar-18 10:00N 52°28' E 004°35'0 0.0
2019-Mar-18 09:30N 52°28' E 004°35'0 0.0
2019-Mar-18 09:00N 52°28' E 004°35'0 0.1
2019-Mar-18 08:30N 52°28' E 004°35'4 8.8
2019-Mar-18 08:00N 52°29' E 004°28'816.0
2019-Mar-18 07:30N 52°35' E 004°19'816.2
2019-Mar-18 07:00N 52°40' E 004°09'1216.2
2019-Mar-18 06:17N 52°48' E 003°54'21617.5
2019-Mar-17 17:58N 54°53' W 001°03'918.3
2019-Mar-17 17:30N 54°58' W 001°16'612.9
2019-Mar-17 17:00N 55°00' W 001°27'1 1.2
2019-Mar-17 16:30N 54°59' W 001°27'0 0.0
2019-Mar-17 15:55N 54°59' W 001°27'0 0.0
2019-Mar-17 15:25N 54°59' W 001°27'0 0.0
2019-Mar-17 14:55N 54°59' W 001°27'0 0.0
2019-Mar-17 14:22N 54°59' W 001°27'0 0.0
2019-Mar-17 13:52N 54°59' W 001°27'0 0.0
2019-Mar-17 13:28N 54°59' W 001°27'0 0.0
2019-Mar-17 12:58N 54°59' W 001°27'0 0.0
2019-Mar-17 12:28N 54°59' W 001°27'0 0.0
2019-Mar-17 11:58N 54°59' W 001°27'0 0.0
2019-Mar-17 11:25N 54°59' W 001°27'0 0.0
2019-Mar-17 10:55N 54°59' W 001°27'0 0.0
2019-Mar-17 10:28N 54°59' W 001°27'0 0.0
2019-Mar-17 09:55N 54°59' W 001°27'0 0.0
2019-Mar-17 09:25N 54°59' W 001°27'0 0.0
2019-Mar-17 09:00N 54°59' W 001°27'4 8.3
2019-Mar-17 08:30N 54°60' W 001°20'815.1
2019-Mar-17 08:00N 54°55' W 001°10'7016.6
2019-Mar-17 03:49N 54°10' E 000°22'16816.5
2019-Mar-16 17:39N 52°37' E 004°15'318.1
2019-Mar-16 17:30N 52°35' E 004°18'815.3
2019-Mar-16 17:01N 52°30' E 004°28'5 9.5
2019-Mar-16 16:31N 52°28' E 004°35'0 0.2
2019-Mar-16 16:01N 52°28' E 004°35'0 0.0
2019-Mar-16 15:30N 52°28' E 004°35'0 0.0
2019-Mar-16 15:00N 52°28' E 004°35'0 0.0
2019-Mar-16 14:30N 52°28' E 004°35'0 0.0
2019-Mar-16 14:00N 52°28' E 004°35'0 0.0
2019-Mar-16 13:30N 52°28' E 004°35'0 0.0
2019-Mar-16 13:00N 52°28' E 004°35'0 0.0
2019-Mar-16 12:30N 52°28' E 004°35'0 0.0
2019-Mar-16 12:00N 52°28' E 004°35'0 0.0
2019-Mar-16 11:30N 52°28' E 004°35'0 0.0
2019-Mar-16 11:00N 52°28' E 004°35'0 0.0
2019-Mar-16 10:30N 52°28' E 004°35'0 0.0
2019-Mar-16 10:00N 52°28' E 004°35'0 0.0
2019-Mar-16 09:30N 52°28' E 004°35'0 0.0
2019-Mar-16 09:00N 52°28' E 004°35'0 0.0
2019-Mar-16 08:30N 52°28' E 004°35'0 0.3
2019-Mar-16 08:01N 52°28' E 004°35'713.3
2019-Mar-16 07:30N 52°31' E 004°26'817.0
2019-Mar-16 07:00N 52°37' E 004°15'917.3
2019-Mar-16 06:30N 52°43' E 004°04'22217.9
2019-Mar-15 18:07N 54°52' W 001°00'217.4
2019-Mar-15 17:58N 54°54' W 001°04'817.3
2019-Mar-15 17:30N 54°58' W 001°16'712.1
2019-Mar-15 16:58N 54°60' W 001°27'1 1.3
2019-Mar-15 16:30N 54°59' W 001°27'0 0.0
2019-Mar-15 16:00N 54°59' W 001°27'0 0.0
2019-Mar-15 15:30N 54°59' W 001°27'0 0.0
2019-Mar-15 14:59N 54°59' W 001°27'0 0.0
2019-Mar-15 14:08N 54°59' W 001°27'0 0.0
2019-Mar-15 13:51N 54°59' W 001°27'0 0.0
2019-Mar-15 13:29N 54°59' W 001°27'0 0.0
2019-Mar-15 12:47N 54°59' W 001°27'0 0.0
2019-Mar-15 12:23N 54°59' W 001°27'0 0.0
2019-Mar-15 11:53N 54°59' W 001°27'0 0.0
2019-Mar-15 11:26N 54°59' W 001°27'0 0.0
2019-Mar-15 10:53N 54°59' W 001°27'0 0.0
2019-Mar-15 10:26N 54°59' W 001°27'0 0.0
2019-Mar-15 09:56N 54°59' W 001°27'0 0.0
2019-Mar-15 09:26N 54°59' W 001°27'0 0.3
2019-Mar-15 09:01N 54°60' W 001°27'5 9.3
2019-Mar-15 08:30N 54°59' W 001°19'815.7
2019-Mar-15 08:00N 54°55' W 001°07'23416.3
2019-Mar-14 17:41N 52°38' E 004°13'316.2
2019-Mar-14 17:31N 52°36' E 004°17'816.2
2019-Mar-14 17:00N 52°31' E 004°27'611.5
2019-Mar-14 16:30N 52°28' E 004°35'0 0.6
2019-Mar-14 16:01N 52°28' E 004°35'0 0.0
2019-Mar-14 15:28N 52°28' E 004°35'0 0.0
2019-Mar-14 14:58N 52°28' E 004°35'0 0.0
2019-Mar-14 14:28N 52°28' E 004°35'0 0.0
2019-Mar-14 13:58N 52°28' E 004°35'0 0.0
2019-Mar-14 13:28N 52°28' E 004°35'0 0.0
2019-Mar-14 12:55N 52°28' E 004°35'0 0.0
2019-Mar-14 12:25N 52°28' E 004°35'0 0.0
2019-Mar-14 11:55N 52°28' E 004°35'0 0.0
2019-Mar-14 11:25N 52°28' E 004°35'0 0.0
2019-Mar-14 10:58N 52°28' E 004°35'0 0.0
2019-Mar-14 10:28N 52°28' E 004°35'0 0.0
2019-Mar-14 09:58N 52°28' E 004°35'0 0.0
2019-Mar-14 09:28N 52°28' E 004°35'0 0.0
2019-Mar-14 08:55N 52°28' E 004°35'0 0.3
2019-Mar-14 08:31N 52°28' E 004°35'3 5.1
2019-Mar-14 08:01N 52°28' E 004°31'713.5
2019-Mar-14 07:31N 52°32' E 004°22'714.4
2019-Mar-14 07:00N 52°38' E 004°14'814.5
2019-Mar-14 06:28N 52°43' E 004°05'21917.9
2019-Mar-13 18:14N 54°51' W 000°57'418.7
2019-Mar-13 18:00N 54°53' W 001°03'918.9
2019-Mar-13 17:30N 54°58' W 001°17'611.4
2019-Mar-13 17:00N 54°60' W 001°27'1 1.1
2019-Mar-13 16:30N 54°59' W 001°27'0 0.0
2019-Mar-13 16:00N 54°59' W 001°27'0 0.0
2019-Mar-13 15:30N 54°59' W 001°27'0 0.0
2019-Mar-13 15:00N 54°59' W 001°27'0 0.0
2019-Mar-13 14:30N 54°59' W 001°27'0 0.0
2019-Mar-13 14:00N 54°59' W 001°27'0 0.0
2019-Mar-13 13:30N 54°59' W 001°27'0 0.0
2019-Mar-13 13:00N 54°59' W 001°27'0 0.0
2019-Mar-13 12:30N 54°59' W 001°27'0 0.0
2019-Mar-13 12:00N 54°59' W 001°27'0 0.0
2019-Mar-13 11:30N 54°59' W 001°27'0 0.0
2019-Mar-13 11:00N 54°59' W 001°27'0 0.0
2019-Mar-13 10:30N 54°59' W 001°27'0 0.0
2019-Mar-13 10:00N 54°59' W 001°27'0 0.0
2019-Mar-13 09:30N 54°59' W 001°27'0 0.1
2019-Mar-13 09:00N 54°59' W 001°27'4 8.5
2019-Mar-13 08:31N 54°60' W 001°20'714.8
2019-Mar-13 08:01N 54°54' W 001°10'5816.5
2019-Mar-13 04:28N 54°11' W 000°03'918.9
2019-Mar-13 04:00N 54°04' E 000°06'919.2
2019-Mar-13 03:30N 53°56' E 000°14'917.8
2019-Mar-13 03:00N 53°49' E 000°25'6518.1
2019-Mar-12 23:27N 53°03' E 001°40'716.8
2019-Mar-12 23:00N 52°58' E 001°50'816.7
2019-Mar-12 22:30N 52°53' E 002°00'817.0
2019-Mar-12 22:00N 52°48' E 002°11'917.2
2019-Mar-12 21:31N 52°44' E 002°24'917.7
2019-Mar-12 21:00N 52°41' E 002°38'5117.2
2019-Mar-12 18:04N 52°30' E 003°59'116.5
2019-Mar-12 18:00N 52°30' E 004°01'817.0
2019-Mar-12 17:30N 52°30' E 004°15'918.0
2019-Mar-12 17:00N 52°28' E 004°29'4 7.1
2019-Mar-12 16:30N 52°28' E 004°35'0 0.0
2019-Mar-12 16:00N 52°28' E 004°35'0 0.0
2019-Mar-12 15:29N 52°28' E 004°35'0 0.0
2019-Mar-12 14:59N 52°28' E 004°35'0 0.0
2019-Mar-12 14:29N 52°28' E 004°35'0 0.0
2019-Mar-12 13:59N 52°28' E 004°35'0 0.0
2019-Mar-12 13:29N 52°28' E 004°35'0 0.0
2019-Mar-12 12:59N 52°28' E 004°35'0 0.0
2019-Mar-12 12:26N 52°28' E 004°35'  

Dump ship's entire track history